createdAt,value
2019-01-04T00:00:09.321Z,67.50
2019-01-04T00:02:39.891Z,67.90
2019-01-04T00:05:39.518Z,68.20
2019-01-04T00:13:37.379Z,68.10
2019-01-04T00:16:22.198Z,68.40
2019-01-04T00:19:08.588Z,68.60
2019-01-04T00:21:54.284Z,68.60
2019-01-04T00:24:24.785Z,68.60
2019-01-04T00:38:19.671Z,68.60
2019-01-04T00:43:46.792Z,68.90
2019-01-04T00:51:58.406Z,69.30
2019-01-04T01:00:18.282Z,69.20
2019-01-04T01:03:28.238Z,69.20
2019-01-04T01:06:41.050Z,69.30
2019-01-04T01:09:25.315Z,69.60
2019-01-04T01:17:37.538Z,70.30
2019-01-04T01:20:31.508Z,70.50
2019-01-04T01:34:00.329Z,71.40
2019-01-04T01:37:10.950Z,71.50
2019-01-04T01:39:58.648Z,71.70
2019-01-04T01:45:29.070Z,71.30
2019-01-04T01:50:55.451Z,71.10
2019-01-04T01:59:03.500Z,69.90
2019-01-04T02:12:39.700Z,69.50
2019-01-04T02:20:37.012Z,69.20
2019-01-04T02:23:20.544Z,69.40
2019-01-04T02:25:50.790Z,69.50
2019-01-04T02:28:20.697Z,69.60
2019-01-04T02:31:04.107Z,69.60
2019-01-04T02:36:30.689Z,69.50
2019-01-04T02:47:22.343Z,69.10
2019-01-04T02:52:47.558Z,69.90
2019-01-04T03:03:39.600Z,71.10
2019-01-04T03:06:09.922Z,71.10
2019-01-04T03:09:01.368Z,70.90
2019-01-04T03:11:45.423Z,70.60
2019-01-04T03:14:16.881Z,70.60
2019-01-04T03:17:06.507Z,70.80
2019-01-04T03:19:49.034Z,71.00
2019-01-04T03:35:52.191Z,70.10
2019-01-04T03:41:08.587Z,69.30
2019-01-04T03:43:39.191Z,69.10
2019-01-04T03:46:28.769Z,68.70
2019-01-04T03:49:11.701Z,68.80
2019-01-04T04:00:04.109Z,69.50
2019-01-04T04:05:17.074Z,69.50
2019-01-04T04:10:44.669Z,69.90
2019-01-04T04:15:56.897Z,69.80
2019-01-04T04:21:29.215Z,69.80
2019-01-04T04:23:59.595Z,69.80
2019-01-04T04:26:49.901Z,69.90
2019-01-04T04:35:02.013Z,69.80
2019-01-04T04:37:44.185Z,69.70
2019-01-04T04:43:13.442Z,69.40
2019-01-04T04:51:26.738Z,69.90
2019-01-04T04:59:45.862Z,69.80
2019-01-04T05:02:31.231Z,69.40
2019-01-04T05:05:02.114Z,69.10
2019-01-04T05:07:51.902Z,69.20
2019-01-04T05:10:38.175Z,69.30
2019-01-04T05:15:52.606Z,69.90
2019-01-04T05:26:51.207Z,69.60
2019-01-04T05:37:40.301Z,70.60
2019-01-04T05:45:38.538Z,71.40
2019-01-04T05:48:08.568Z,71.50
2019-01-04T05:50:58.706Z,71.60
2019-01-04T05:53:46.364Z,71.60
2019-01-04T05:56:16.832Z,71.70
2019-01-04T05:58:47.168Z,71.70
2019-01-04T06:01:30.032Z,71.90
2019-01-04T06:04:00.584Z,72.10
2019-01-04T06:06:50.807Z,72.40
2019-01-04T06:09:34.314Z,72.50
2019-01-04T06:15:07.673Z,72.50
2019-01-04T06:20:37.173Z,72.60
2019-01-04T06:26:04.169Z,72.50
2019-01-04T06:28:34.589Z,72.30
2019-01-04T06:31:04.946Z,71.90
2019-01-04T06:33:55.882Z,71.80
2019-01-04T06:36:26.388Z,71.70
2019-01-04T06:39:16.303Z,71.80
2019-01-04T06:42:01.777Z,71.80
2019-01-04T06:47:26.867Z,72.00
2019-01-04T06:49:57.463Z,72.70
2019-01-04T06:52:47.375Z,72.10
2019-01-04T06:55:34.975Z,72.20
2019-01-04T07:01:06.926Z,71.70
2019-01-04T07:03:37.362Z,71.70
2019-01-04T07:06:07.678Z,71.90
2019-01-04T07:08:58.001Z,71.70
2019-01-04T07:16:52.082Z,71.10
2019-01-04T07:19:22.359Z,71.00
2019-01-04T07:22:12.038Z,70.90
2019-01-04T07:24:42.487Z,70.80
2019-01-04T07:27:33.183Z,71.00
2019-01-04T07:33:02.345Z,71.10
2019-01-04T07:38:15.631Z,71.20
2019-01-04T07:41:01.449Z,71.30
2019-01-04T07:43:45.312Z,71.30
2019-01-04T07:46:15.523Z,71.40
2019-01-04T07:49:07.078Z,71.40
2019-01-04T07:51:51.259Z,71.00
2019-01-04T07:57:03.357Z,71.60
2019-01-04T07:59:33.622Z,71.90
2019-01-04T08:02:17.922Z,72.10
2019-01-04T08:04:48.445Z,72.10
2019-01-04T08:07:18.919Z,72.00
2019-01-04T08:10:09.284Z,72.00
2019-01-04T08:13:02.252Z,72.00
2019-01-04T08:15:44.913Z,72.20
2019-01-04T08:18:15.330Z,72.10
2019-01-04T08:20:45.069Z,72.00
2019-01-04T08:23:36.022Z,71.90
2019-01-04T08:26:05.866Z,72.30
2019-01-04T08:28:36.415Z,72.10
2019-01-04T08:31:06.354Z,72.10
2019-01-04T08:33:37.227Z,72.20
2019-01-04T08:36:07.735Z,72.00
2019-01-04T08:39:00.398Z,72.10
2019-01-04T08:41:30.717Z,71.90
2019-01-04T08:44:01.120Z,71.90
2019-01-04T08:46:31.479Z,71.80
2019-01-04T08:51:58.146Z,71.70
2019-01-04T08:57:14.893Z,71.50
2019-01-04T08:59:45.669Z,71.40
2019-01-04T09:02:17.764Z,71.30
2019-01-04T09:04:48.479Z,71.20
2019-01-04T09:07:20.434Z,71.20
2019-01-04T09:09:50.946Z,71.20
2019-01-04T09:12:21.823Z,71.20
2019-01-04T09:14:51.978Z,71.10
2019-01-04T09:17:24.657Z,71.10
2019-01-04T09:19:56.255Z,71.00
2019-01-04T09:22:29.565Z,70.90
2019-01-04T09:25:01.928Z,71.00
2019-01-04T09:27:33.838Z,70.80
2019-01-04T09:30:05.808Z,70.70
2019-01-04T09:32:36.020Z,70.70
2019-01-04T09:35:08.299Z,70.80
2019-01-04T09:37:38.505Z,70.70
2019-01-04T09:40:11.209Z,70.70
2019-01-04T09:42:43.219Z,70.50
2019-01-04T09:45:13.026Z,70.40
2019-01-04T09:47:43.985Z,70.30
2019-01-04T09:50:14.318Z,70.20
2019-01-04T09:52:44.492Z,70.00
2019-01-04T09:55:14.984Z,69.70
2019-01-04T09:57:45.415Z,69.80
2019-01-04T10:00:15.328Z,69.80
2019-01-04T10:02:46.468Z,69.70
2019-01-04T10:05:16.688Z,69.40
2019-01-04T10:07:48.458Z,69.50
2019-01-04T10:10:39.456Z,69.50
2019-01-04T10:15:55.691Z,69.20
2019-01-04T10:18:25.870Z,69.20
2019-01-04T10:20:56.271Z,69.20
2019-01-04T10:26:29.066Z,69.30
2019-01-04T10:28:59.157Z,69.60
2019-01-04T10:31:42.107Z,69.50
2019-01-04T10:34:14.293Z,69.30
2019-01-04T10:36:45.786Z,69.10
2019-01-04T10:39:17.561Z,68.90
2019-01-04T10:45:01.781Z,68.90
2019-01-04T10:47:31.991Z,69.00
2019-01-04T10:50:02.083Z,68.80
2019-01-04T10:52:32.890Z,68.80
2019-01-04T10:55:02.674Z,69.10
2019-01-04T10:57:33.920Z,69.20
2019-01-04T11:00:04.345Z,68.90
2019-01-04T11:02:34.782Z,68.10
2019-01-04T11:05:04.689Z,68.00
2019-01-04T11:07:35.014Z,69.10
2019-01-04T11:10:24.251Z,68.20
2019-01-04T11:12:54.482Z,68.00
2019-01-04T11:15:24.103Z,67.60
2019-01-04T11:17:54.711Z,67.30
2019-01-04T11:20:44.411Z,67.40
2019-01-04T11:23:57.291Z,67.10
2019-01-04T11:26:40.100Z,67.10
2019-01-04T11:29:51.926Z,67.10
2019-01-04T11:32:48.110Z,66.90
2019-01-04T11:35:44.766Z,67.00
2019-01-04T11:38:53.250Z,66.90
2019-01-04T11:41:55.379Z,66.90
2019-01-04T11:44:59.300Z,67.10
2019-01-04T11:48:08.280Z,67.20
2019-01-04T11:51:32.055Z,67.10
2019-01-04T11:54:05.822Z,67.20
2019-01-04T11:56:35.668Z,67.10
2019-01-04T12:01:49.045Z,66.20
2019-01-04T12:04:19.051Z,65.80
2019-01-04T12:15:25.553Z,64.20
2019-01-04T12:21:10.159Z,63.00
2019-01-04T12:23:40.268Z,62.60
2019-01-04T12:35:03.754Z,63.00
2019-01-04T12:37:39.730Z,62.20
2019-01-04T12:40:10.271Z,62.30
2019-01-04T12:42:45.697Z,62.70
2019-01-04T12:45:16.062Z,63.20
2019-01-04T12:56:13.931Z,61.60
2019-01-04T12:58:47.552Z,61.40
2019-01-04T13:22:48.205Z,62.70
2019-01-04T13:48:18.648Z,61.90
2019-01-04T13:58:00.058Z,62.40
2019-01-04T14:00:50.300Z,61.50
2019-01-04T14:03:28.414Z,62.40
2019-01-04T14:09:29.898Z,62.30
2019-01-04T14:48:15.758Z,63.00
2019-01-04T14:51:08.526Z,62.80
2019-01-04T14:59:38.363Z,63.00
2019-01-04T15:12:55.421Z,64.00
2019-01-04T15:15:36.357Z,63.70
2019-01-04T15:18:15.804Z,63.80
2019-01-04T15:21:12.408Z,64.70
2019-01-04T15:23:46.812Z,64.10
2019-01-04T16:08:26.484Z,64.50
2019-01-04T16:10:58.526Z,64.40
2019-01-04T16:13:38.099Z,64.60
2019-01-04T16:16:18.402Z,64.20
2019-01-04T16:18:55.171Z,63.90
2019-01-04T16:22:01.312Z,63.70
2019-01-04T16:25:23.508Z,64.10
2019-01-04T16:28:27.340Z,65.00
2019-01-04T16:40:15.938Z,66.00
2019-01-04T16:43:18.049Z,66.30
2019-01-04T16:46:00.716Z,66.40
2019-01-04T16:48:37.283Z,66.20
2019-01-04T16:51:09.663Z,66.50
2019-01-04T16:53:45.166Z,66.00
2019-01-04T16:56:18.813Z,65.00
2019-01-04T16:58:50.874Z,64.50
2019-01-04T17:01:28.255Z,64.60
2019-01-04T17:03:59.890Z,64.90
2019-01-04T17:06:54.866Z,63.40
2019-01-04T17:09:54.718Z,63.30
2019-01-04T17:12:44.406Z,63.00
2019-01-04T17:38:55.347Z,63.50
2019-01-04T17:53:03.523Z,63.80
2019-01-04T17:55:52.428Z,63.10
2019-01-04T18:03:55.031Z,62.90
2019-01-04T18:14:32.530Z,62.20
2019-01-04T18:38:08.936Z,63.40
2019-01-04T18:43:42.373Z,62.30
2019-01-04T19:07:32.814Z,63.50
2019-01-04T19:10:21.069Z,64.00
2019-01-04T19:15:49.543Z,65.50
2019-01-04T19:24:32.389Z,65.60
2019-01-04T19:31:35.360Z,66.20
2019-01-04T19:37:39.569Z,66.50
2019-01-04T19:44:23.824Z,66.90
2019-01-04T19:47:29.898Z,67.00
2019-01-04T19:52:55.373Z,67.40
2019-01-04T20:07:45.442Z,67.60
2019-01-04T20:11:22.808Z,67.50
2019-01-04T20:14:24.800Z,67.80
2019-01-04T20:20:29.439Z,68.20
2019-01-04T20:26:49.573Z,68.60
2019-01-04T20:29:41.844Z,69.40
